sensor_id;sensor_type;location;lat;lon;timestamp;temperature;humidity
69359;HTU21D;56520;49.066;8.660;2023-08-12T00:00:08;19.09;84.96
69359;HTU21D;56520;49.066;8.660;2023-08-12T00:02:38;19.09;85.12
69359;HTU21D;56520;49.066;8.660;2023-08-12T00:05:04;19.07;85.31
69359;HTU21D;56520;49.066;8.660;2023-08-12T00:07:30;19.06;85.33
69359;HTU21D;56520;49.066;8.660;2023-08-12T00:09:55;19.03;85.35
69359;HTU21D;56520;49.066;8.660;2023-08-12T00:12:21;19.00;85.38
69359;HTU21D;56520;49.066;8.660;2023-08-12T00:14:47;18.98;85.35
69359;HTU21D;56520;49.066;8.660;2023-08-12T00:17:12;18.98;85.48
69359;HTU21D;56520;49.066;8.660;2023-08-12T00:19:38;18.99;85.63
69359;HTU21D;56520;49.066;8.660;2023-08-12T00:22:03;18.98;85.35
69359;HTU21D;56520;49.066;8.660;2023-08-12T00:24:30;18.98;85.32
69359;HTU21D;56520;49.066;8.660;2023-08-12T00:26:55;19.00;85.30
69359;HTU21D;56520;49.066;8.660;2023-08-12T00:29:21;19.00;85.26
69359;HTU21D;56520;49.066;8.660;2023-08-12T00:31:46;19.01;85.34
69359;HTU21D;56520;49.066;8.660;2023-08-12T00:34:11;19.00;85.55
69359;HTU21D;56520;49.066;8.660;2023-08-12T00:36:37;18.99;85.38
69359;HTU21D;56520;49.066;8.660;2023-08-12T00:39:05;18.99;85.39
69359;HTU21D;56520;49.066;8.660;2023-08-12T00:41:31;18.98;85.35
69359;HTU21D;56520;49.066;8.660;2023-08-12T00:43:56;18.96;85.45
69359;HTU21D;56520;49.066;8.660;2023-08-12T00:46:22;18.98;85.47
69359;HTU21D;56520;49.066;8.660;2023-08-12T00:48:49;18.97;85.52
69359;HTU21D;56520;49.066;8.660;2023-08-12T00:51:15;18.96;85.52
69359;HTU21D;56520;49.066;8.660;2023-08-12T00:53:42;18.95;85.55
69359;HTU21D;56520;49.066;8.660;2023-08-12T00:56:07;18.95;85.84
69359;HTU21D;56520;49.066;8.660;2023-08-12T00:58:36;18.94;86.02
69359;HTU21D;56520;49.066;8.660;2023-08-12T01:01:01;18.92;86.03
69359;HTU21D;56520;49.066;8.660;2023-08-12T01:03:26;18.91;86.25
69359;HTU21D;56520;49.066;8.660;2023-08-12T01:05:52;18.89;86.28
69359;HTU21D;56520;49.066;8.660;2023-08-12T01:08:17;18.87;86.19
69359;HTU21D;56520;49.066;8.660;2023-08-12T01:10:48;18.87;86.12
69359;HTU21D;56520;49.066;8.660;2023-08-12T01:13:38;18.88;86.00
69359;HTU21D;56520;49.066;8.660;2023-08-12T01:16:06;18.89;85.96
69359;HTU21D;56520;49.066;8.660;2023-08-12T01:18:33;18.88;86.07
69359;HTU21D;56520;49.066;8.660;2023-08-12T01:20:59;18.91;86.06
69359;HTU21D;56520;49.066;8.660;2023-08-12T01:23:29;18.91;86.16
69359;HTU21D;56520;49.066;8.660;2023-08-12T01:25:54;18.89;86.04
69359;HTU21D;56520;49.066;8.660;2023-08-12T01:28:19;18.89;86.09
69359;HTU21D;56520;49.066;8.660;2023-08-12T01:33:49;18.92;86.33
69359;HTU21D;56520;49.066;8.660;2023-08-12T01:36:19;18.92;86.13
69359;HTU21D;56520;49.066;8.660;2023-08-12T01:38:45;18.93;86.23
69359;HTU21D;56520;49.066;8.660;2023-08-12T01:41:15;18.94;86.28
69359;HTU21D;56520;49.066;8.660;2023-08-12T01:43:44;18.93;86.29
69359;HTU21D;56520;49.066;8.660;2023-08-12T01:46:10;18.94;86.67
69359;HTU21D;56520;49.066;8.660;2023-08-12T01:48:35;18.95;86.86
69359;HTU21D;56520;49.066;8.660;2023-08-12T01:51:01;18.94;86.64
69359;HTU21D;56520;49.066;8.660;2023-08-12T01:53:26;18.95;86.86
69359;HTU21D;56520;49.066;8.660;2023-08-12T01:55:52;18.93;86.96
69359;HTU21D;56520;49.066;8.660;2023-08-12T01:58:17;18.92;86.77
69359;HTU21D;56520;49.066;8.660;2023-08-12T02:00:43;18.91;86.72
69359;HTU21D;56520;49.066;8.660;2023-08-12T02:03:08;18.94;86.78
69359;HTU21D;56520;49.066;8.660;2023-08-12T02:05:34;18.95;86.73
69359;HTU21D;56520;49.066;8.660;2023-08-12T02:07:59;18.99;86.98
69359;HTU21D;56520;49.066;8.660;2023-08-12T02:10:25;18.98;87.03
69359;HTU21D;56520;49.066;8.660;2023-08-12T02:12:53;18.99;86.92
69359;HTU21D;56520;49.066;8.660;2023-08-12T02:15:19;18.99;86.99
69359;HTU21D;56520;49.066;8.660;2023-08-12T02:17:44;19.02;87.21
69359;HTU21D;56520;49.066;8.660;2023-08-12T02:20:12;19.03;87.44
69359;HTU21D;56520;49.066;8.660;2023-08-12T02:22:38;19.02;87.20
69359;HTU21D;56520;49.066;8.660;2023-08-12T02:25:03;19.03;87.28
69359;HTU21D;56520;49.066;8.660;2023-08-12T02:27:29;19.06;87.49
69359;HTU21D;56520;49.066;8.660;2023-08-12T02:30:03;19.03;87.67
69359;HTU21D;56520;49.066;8.660;2023-08-12T02:32:29;19.01;87.72
69359;HTU21D;56520;49.066;8.660;2023-08-12T02:34:55;19.01;87.96
69359;HTU21D;56520;49.066;8.660;2023-08-12T02:37:20;19.01;87.86
69359;HTU21D;56520;49.066;8.660;2023-08-12T02:39:45;19.01;87.86
69359;HTU21D;56520;49.066;8.660;2023-08-12T02:42:11;19.01;88.13
69359;HTU21D;56520;49.066;8.660;2023-08-12T02:44:36;19.03;88.44
69359;HTU21D;56520;49.066;8.660;2023-08-12T02:47:02;19.05;88.00
69359;HTU21D;56520;49.066;8.660;2023-08-12T02:49:27;19.07;87.86
69359;HTU21D;56520;49.066;8.660;2023-08-12T02:51:53;19.11;87.81
69359;HTU21D;56520;49.066;8.660;2023-08-12T02:54:18;19.12;87.77
69359;HTU21D;56520;49.066;8.660;2023-08-12T02:56:44;19.12;87.71
69359;HTU21D;56520;49.066;8.660;2023-08-12T02:59:09;19.10;87.76
69359;HTU21D;56520;49.066;8.660;2023-08-12T03:01:34;19.10;87.73
69359;HTU21D;56520;49.066;8.660;2023-08-12T03:04:00;19.11;87.77
69359;HTU21D;56520;49.066;8.660;2023-08-12T03:06:25;19.13;87.89
69359;HTU21D;56520;49.066;8.660;2023-08-12T03:08:51;19.13;87.84
69359;HTU21D;56520;49.066;8.660;2023-08-12T03:11:16;19.14;87.83
69359;HTU21D;56520;49.066;8.660;2023-08-12T03:13:46;19.15;87.82
69359;HTU21D;56520;49.066;8.660;2023-08-12T03:16:13;19.14;88.17
69359;HTU21D;56520;49.066;8.660;2023-08-12T03:18:39;19.13;88.16
69359;HTU21D;56520;49.066;8.660;2023-08-12T03:21:08;19.14;88.12
69359;HTU21D;56520;49.066;8.660;2023-08-12T03:23:37;19.12;88.12
69359;HTU21D;56520;49.066;8.660;2023-08-12T03:26:05;19.12;88.11
69359;HTU21D;56520;49.066;8.660;2023-08-12T03:28:31;19.14;88.09
69359;HTU21D;56520;49.066;8.660;2023-08-12T03:30:56;19.14;88.06
69359;HTU21D;56520;49.066;8.660;2023-08-12T03:33:21;19.15;88.02
69359;HTU21D;56520;49.066;8.660;2023-08-12T03:35:48;19.16;88.02
69359;HTU21D;56520;49.066;8.660;2023-08-12T03:38:14;19.17;88.00
69359;HTU21D;56520;49.066;8.660;2023-08-12T03:40:39;19.20;88.12
69359;HTU21D;56520;49.066;8.660;2023-08-12T03:43:08;19.21;88.09
69359;HTU21D;56520;49.066;8.660;2023-08-12T03:45:39;19.22;88.09
69359;HTU21D;56520;49.066;8.660;2023-08-12T03:48:05;19.22;88.07
69359;HTU21D;56520;49.066;8.660;2023-08-12T03:50:33;19.23;87.99
69359;HTU21D;56520;49.066;8.660;2023-08-12T03:52:59;19.22;88.05
69359;HTU21D;56520;49.066;8.660;2023-08-12T03:55:25;19.22;88.00
69359;HTU21D;56520;49.066;8.660;2023-08-12T03:57:50;19.23;88.02
69359;HTU21D;56520;49.066;8.660;2023-08-12T04:00:17;19.27;88.06
69359;HTU21D;56520;49.066;8.660;2023-08-12T04:02:42;19.26;88.04
69359;HTU21D;56520;49.066;8.660;2023-08-12T04:05:08;19.28;88.01
69359;HTU21D;56520;49.066;8.660;2023-08-12T04:07:35;19.27;87.93
69359;HTU21D;56520;49.066;8.660;2023-08-12T04:10:01;19.26;88.16
69359;HTU21D;56520;49.066;8.660;2023-08-12T04:12:26;19.23;88.18
69359;HTU21D;56520;49.066;8.660;2023-08-12T04:14:52;19.22;88.18
69359;HTU21D;56520;49.066;8.660;2023-08-12T04:17:17;19.23;88.18
69359;HTU21D;56520;49.066;8.660;2023-08-12T04:19:46;19.24;88.19
69359;HTU21D;56520;49.066;8.660;2023-08-12T04:22:11;19.25;88.25
69359;HTU21D;56520;49.066;8.660;2023-08-12T04:24:36;19.28;88.21
69359;HTU21D;56520;49.066;8.660;2023-08-12T04:27:02;19.27;88.23
69359;HTU21D;56520;49.066;8.660;2023-08-12T04:29:27;19.30;88.14
69359;HTU21D;56520;49.066;8.660;2023-08-12T04:31:53;19.28;88.16
69359;HTU21D;56520;49.066;8.660;2023-08-12T04:34:18;19.30;88.09
69359;HTU21D;56520;49.066;8.660;2023-08-12T04:36:46;19.30;88.04
69359;HTU21D;56520;49.066;8.660;2023-08-12T04:39:12;19.32;87.96
69359;HTU21D;56520;49.066;8.660;2023-08-12T04:41:37;19.35;87.89
69359;HTU21D;56520;49.066;8.660;2023-08-12T04:44:06;19.35;87.96
69359;HTU21D;56520;49.066;8.660;2023-08-12T04:46:31;19.35;87.91
69359;HTU21D;56520;49.066;8.660;2023-08-12T04:48:57;19.37;87.89
69359;HTU21D;56520;49.066;8.660;2023-08-12T04:51:23;19.38;87.87
69359;HTU21D;56520;49.066;8.660;2023-08-12T04:53:51;19.40;87.78
69359;HTU21D;56520;49.066;8.660;2023-08-12T04:56:16;19.43;87.72
69359;HTU21D;56520;49.066;8.660;2023-08-12T04:58:42;19.43;87.79
69359;HTU21D;56520;49.066;8.660;2023-08-12T05:01:07;19.46;87.80
69359;HTU21D;56520;49.066;8.660;2023-08-12T05:03:33;19.47;87.70
69359;HTU21D;56520;49.066;8.660;2023-08-12T05:05:58;19.50;87.64
69359;HTU21D;56520;49.066;8.660;2023-08-12T05:08:24;19.53;87.58
69359;HTU21D;56520;49.066;8.660;2023-08-12T05:10:50;19.55;87.74
69359;HTU21D;56520;49.066;8.660;2023-08-12T05:13:15;19.54;87.96
69359;HTU21D;56520;49.066;8.660;2023-08-12T05:15:41;19.54;88.04
69359;HTU21D;56520;49.066;8.660;2023-08-12T05:18:07;19.57;88.06
69359;HTU21D;56520;49.066;8.660;2023-08-12T05:20:32;19.61;88.00
69359;HTU21D;56520;49.066;8.660;2023-08-12T05:22:58;19.67;87.88
69359;HTU21D;56520;49.066;8.660;2023-08-12T05:25:23;19.71;87.77
69359;HTU21D;56520;49.066;8.660;2023-08-12T05:27:49;19.75;87.77
69359;HTU21D;56520;49.066;8.660;2023-08-12T05:30:15;19.77;87.67
69359;HTU21D;56520;49.066;8.660;2023-08-12T05:32:40;19.76;87.56
69359;HTU21D;56520;49.066;8.660;2023-08-12T05:35:06;19.75;87.49
69359;HTU21D;56520;49.066;8.660;2023-08-12T05:37:31;19.77;87.49
69359;HTU21D;56520;49.066;8.660;2023-08-12T05:39:57;19.79;87.54
69359;HTU21D;56520;49.066;8.660;2023-08-12T05:42:22;19.82;87.55
69359;HTU21D;56520;49.066;8.660;2023-08-12T05:44:50;19.87;87.47
69359;HTU21D;56520;49.066;8.660;2023-08-12T05:47:15;19.94;87.41
69359;HTU21D;56520;49.066;8.660;2023-08-12T05:49:40;19.99;87.36
69359;HTU21D;56520;49.066;8.660;2023-08-12T05:52:07;20.06;87.40
69359;HTU21D;56520;49.066;8.660;2023-08-12T05:54:32;20.14;87.24
69359;HTU21D;56520;49.066;8.660;2023-08-12T05:56:58;20.19;87.06
69359;HTU21D;56520;49.066;8.660;2023-08-12T05:59:24;20.24;86.84
69359;HTU21D;56520;49.066;8.660;2023-08-12T06:01:49;20.25;86.79
69359;HTU21D;56520;49.066;8.660;2023-08-12T06:04:15;20.31;86.85
69359;HTU21D;56520;49.066;8.660;2023-08-12T06:06:40;20.34;86.92
69359;HTU21D;56520;49.066;8.660;2023-08-12T06:09:05;20.43;86.67
69359;HTU21D;56520;49.066;8.660;2023-08-12T06:11:31;20.53;86.32
69359;HTU21D;56520;49.066;8.660;2023-08-12T06:13:56;20.59;86.16
69359;HTU21D;56520;49.066;8.660;2023-08-12T06:16:22;20.60;86.15
69359;HTU21D;56520;49.066;8.660;2023-08-12T06:18:47;20.64;86.17
69359;HTU21D;56520;49.066;8.660;2023-08-12T06:21:15;20.69;86.05
69359;HTU21D;56520;49.066;8.660;2023-08-12T06:23:41;20.74;85.93
69359;HTU21D;56520;49.066;8.660;2023-08-12T06:26:06;20.79;85.90
69359;HTU21D;56520;49.066;8.660;2023-08-12T06:28:32;20.91;85.67
69359;HTU21D;56520;49.066;8.660;2023-08-12T06:30:57;21.02;85.33
69359;HTU21D;56520;49.066;8.660;2023-08-12T06:33:25;21.06;85.22
69359;HTU21D;56520;49.066;8.660;2023-08-12T06:35:51;21.10;85.19
69359;HTU21D;56520;49.066;8.660;2023-08-12T06:38:16;21.11;85.03
69359;HTU21D;56520;49.066;8.660;2023-08-12T06:40:42;21.19;84.97
69359;HTU21D;56520;49.066;8.660;2023-08-12T06:43:07;21.33;84.14
69359;HTU21D;56520;49.066;8.660;2023-08-12T06:45:34;21.45;84.13
69359;HTU21D;56520;49.066;8.660;2023-08-12T06:47:59;21.57;83.06
69359;HTU21D;56520;49.066;8.660;2023-08-12T06:50:25;21.69;83.32
69359;HTU21D;56520;49.066;8.660;2023-08-12T06:52:50;21.78;83.29
69359;HTU21D;56520;49.066;8.660;2023-08-12T06:55:16;21.83;83.22
69359;HTU21D;56520;49.066;8.660;2023-08-12T06:57:41;21.90;83.19
69359;HTU21D;56520;49.066;8.660;2023-08-12T07:00:07;21.95;82.97
69359;HTU21D;56520;49.066;8.660;2023-08-12T07:02:33;21.98;82.90
69359;HTU21D;56520;49.066;8.660;2023-08-12T07:04:58;22.01;82.70
69359;HTU21D;56520;49.066;8.660;2023-08-12T07:07:24;22.09;81.49
69359;HTU21D;56520;49.066;8.660;2023-08-12T07:09:49;22.18;80.94
69359;HTU21D;56520;49.066;8.660;2023-08-12T07:12:14;22.25;80.72
69359;HTU21D;56520;49.066;8.660;2023-08-12T07:14:40;22.33;80.62
69359;HTU21D;56520;49.066;8.660;2023-08-12T07:17:05;22.38;80.27
69359;HTU21D;56520;49.066;8.660;2023-08-12T07:19:31;22.43;79.48
69359;HTU21D;56520;49.066;8.660;2023-08-12T07:21:56;22.49;79.46
69359;HTU21D;56520;49.066;8.660;2023-08-12T07:24:21;22.50;79.28
69359;HTU21D;56520;49.066;8.660;2023-08-12T07:26:47;22.51;79.04
69359;HTU21D;56520;49.066;8.660;2023-08-12T07:29:13;22.54;79.04
69359;HTU21D;56520;49.066;8.660;2023-08-12T07:31:38;22.58;79.06
69359;HTU21D;56520;49.066;8.660;2023-08-12T07:34:04;22.67;78.51
69359;HTU21D;56520;49.066;8.660;2023-08-12T07:36:31;22.75;78.56
69359;HTU21D;56520;49.066;8.660;2023-08-12T07:38:56;22.82;78.47
69359;HTU21D;56520;49.066;8.660;2023-08-12T07:41:21;22.88;78.16
69359;HTU21D;56520;49.066;8.660;2023-08-12T07:43:47;22.96;77.97
69359;HTU21D;56520;49.066;8.660;2023-08-12T07:46:12;23.05;77.59
69359;HTU21D;56520;49.066;8.660;2023-08-12T07:48:38;23.14;77.03
69359;HTU21D;56520;49.066;8.660;2023-08-12T07:51:04;23.23;77.05
69359;HTU21D;56520;49.066;8.660;2023-08-12T07:53:29;23.32;76.82
69359;HTU21D;56520;49.066;8.660;2023-08-12T07:55:54;23.41;77.05
69359;HTU21D;56520;49.066;8.660;2023-08-12T07:58:29;23.50;75.70
69359;HTU21D;56520;49.066;8.660;2023-08-12T08:00:55;23.52;75.79
69359;HTU21D;56520;49.066;8.660;2023-08-12T08:03:20;23.50;76.07
69359;HTU21D;56520;49.066;8.660;2023-08-12T08:05:45;23.49;76.06
69359;HTU21D;56520;49.066;8.660;2023-08-12T08:08:12;23.50;76.31
69359;HTU21D;56520;49.066;8.660;2023-08-12T08:10:40;23.47;76.57
69359;HTU21D;56520;49.066;8.660;2023-08-12T08:13:06;23.42;76.73
69359;HTU21D;56520;49.066;8.660;2023-08-12T08:15:31;23.40;76.93
69359;HTU21D;56520;49.066;8.660;2023-08-12T08:17:57;23.47;77.02
69359;HTU21D;56520;49.066;8.660;2023-08-12T08:20:22;23.57;76.90
69359;HTU21D;56520;49.066;8.660;2023-08-12T08:22:47;23.76;77.08
69359;HTU21D;56520;49.066;8.660;2023-08-12T08:25:13;23.91;76.48
69359;HTU21D;56520;49.066;8.660;2023-08-12T08:27:38;23.99;75.95
69359;HTU21D;56520;49.066;8.660;2023-08-12T08:30:05;24.13;74.52
69359;HTU21D;56520;49.066;8.660;2023-08-12T08:32:31;24.27;75.13
69359;HTU21D;56520;49.066;8.660;2023-08-12T08:34:56;24.36;73.57
69359;HTU21D;56520;49.066;8.660;2023-08-12T08:37:22;24.38;73.66
69359;HTU21D;56520;49.066;8.660;2023-08-12T08:39:47;24.36;73.80
69359;HTU21D;56520;49.066;8.660;2023-08-12T08:42:15;24.41;72.77
69359;HTU21D;56520;49.066;8.660;2023-08-12T08:44:40;24.62;71.64
69359;HTU21D;56520;49.066;8.660;2023-08-12T08:47:08;24.90;71.76
69359;HTU21D;56520;49.066;8.660;2023-08-12T08:49:34;25.12;71.59
69359;HTU21D;56520;49.066;8.660;2023-08-12T08:52:00;25.31;71.56
69359;HTU21D;56520;49.066;8.660;2023-08-12T08:54:27;25.57;71.48
69359;HTU21D;56520;49.066;8.660;2023-08-12T08:56:52;25.72;71.18
69359;HTU21D;56520;49.066;8.660;2023-08-12T08:59:18;25.89;71.03
69359;HTU21D;56520;49.066;8.660;2023-08-12T09:01:45;26.03;69.33
69359;HTU21D;56520;49.066;8.660;2023-08-12T09:04:12;26.18;69.02
69359;HTU21D;56520;49.066;8.660;2023-08-12T09:06:39;26.46;66.91
69359;HTU21D;56520;49.066;8.660;2023-08-12T09:09:09;26.62;67.33
69359;HTU21D;56520;49.066;8.660;2023-08-12T09:11:39;26.75;67.55
69359;HTU21D;56520;49.066;8.660;2023-08-12T09:14:05;26.91;64.33
69359;HTU21D;56520;49.066;8.660;2023-08-12T09:16:31;27.22;64.47
69359;HTU21D;56520;49.066;8.660;2023-08-12T09:18:56;27.36;63.22
69359;HTU21D;56520;49.066;8.660;2023-08-12T09:21:21;27.43;62.19
69359;HTU21D;56520;49.066;8.660;2023-08-12T09:23:47;27.47;63.53
69359;HTU21D;56520;49.066;8.660;2023-08-12T09:26:23;27.32;64.04
69359;HTU21D;56520;49.066;8.660;2023-08-12T09:28:48;27.24;63.88
69359;HTU21D;56520;49.066;8.660;2023-08-12T09:31:28;27.19;64.37
69359;HTU21D;56520;49.066;8.660;2023-08-12T09:33:57;27.23;61.44
69359;HTU21D;56520;49.066;8.660;2023-08-12T09:36:23;27.49;62.43
69359;HTU21D;56520;49.066;8.660;2023-08-12T09:38:48;27.81;62.84
69359;HTU21D;56520;49.066;8.660;2023-08-12T09:41:14;27.95;62.66
69359;HTU21D;56520;49.066;8.660;2023-08-12T09:43:44;27.84;62.33
69359;HTU21D;56520;49.066;8.660;2023-08-12T09:46:13;27.67;61.96
69359;HTU21D;56520;49.066;8.660;2023-08-12T09:48:41;27.68;61.15
69359;HTU21D;56520;49.066;8.660;2023-08-12T09:51:07;27.86;61.38
69359;HTU21D;56520;49.066;8.660;2023-08-12T09:53:33;28.08;57.88
69359;HTU21D;56520;49.066;8.660;2023-08-12T09:56:06;28.03;58.97
69359;HTU21D;56520;49.066;8.660;2023-08-12T09:58:36;27.93;59.71
69359;HTU21D;56520;49.066;8.660;2023-08-12T10:01:05;27.91;59.53
69359;HTU21D;56520;49.066;8.660;2023-08-12T10:03:33;27.99;60.35
69359;HTU21D;56520;49.066;8.660;2023-08-12T10:05:59;28.34;59.38
69359;HTU21D;56520;49.066;8.660;2023-08-12T10:08:27;28.52;59.06
69359;HTU21D;56520;49.066;8.660;2023-08-12T10:10:55;28.77;58.48
69359;HTU21D;56520;49.066;8.660;2023-08-12T10:13:24;29.17;57.69
69359;HTU21D;56520;49.066;8.660;2023-08-12T10:15:50;29.44;58.11
69359;HTU21D;56520;49.066;8.660;2023-08-12T10:18:18;29.67;56.12
69359;HTU21D;56520;49.066;8.660;2023-08-12T10:20:44;29.74;55.13
69359;HTU21D;56520;49.066;8.660;2023-08-12T10:23:17;29.90;55.73
69359;HTU21D;56520;49.066;8.660;2023-08-12T10:25:44;30.06;54.46
69359;HTU21D;56520;49.066;8.660;2023-08-12T10:28:11;30.21;55.11
69359;HTU21D;56520;49.066;8.660;2023-08-12T10:30:36;30.41;55.98
69359;HTU21D;56520;49.066;8.660;2023-08-12T10:33:02;30.71;53.61
69359;HTU21D;56520;49.066;8.660;2023-08-12T10:35:57;30.93;54.04
69359;HTU21D;56520;49.066;8.660;2023-08-12T10:38:24;31.09;52.84
69359;HTU21D;56520;49.066;8.660;2023-08-12T10:40:51;31.22;51.82
69359;HTU21D;56520;49.066;8.660;2023-08-12T10:43:16;31.27;51.34
69359;HTU21D;56520;49.066;8.660;2023-08-12T10:45:51;31.33;51.14
69359;HTU21D;56520;49.066;8.660;2023-08-12T10:48:26;31.41;50.77
69359;HTU21D;56520;49.066;8.660;2023-08-12T10:50:59;31.67;51.73
69359;HTU21D;56520;49.066;8.660;2023-08-12T10:53:28;31.81;50.05
69359;HTU21D;56520;49.066;8.660;2023-08-12T10:56:11;31.89;51.09
69359;HTU21D;56520;49.066;8.660;2023-08-12T10:58:46;32.08;48.89
69359;HTU21D;56520;49.066;8.660;2023-08-12T11:01:18;31.95;49.16
69359;HTU21D;56520;49.066;8.660;2023-08-12T11:03:53;31.45;49.83
69359;HTU21D;56520;49.066;8.660;2023-08-12T11:06:19;30.81;51.28
69359;HTU21D;56520;49.066;8.660;2023-08-12T11:08:51;30.28;52.01
69359;HTU21D;56520;49.066;8.660;2023-08-12T11:11:22;29.77;52.89
69359;HTU21D;56520;49.066;8.660;2023-08-12T11:13:56;29.37;54.24
69359;HTU21D;56520;49.066;8.660;2023-08-12T11:16:32;28.95;55.65
69359;HTU21D;56520;49.066;8.660;2023-08-12T11:18:59;28.61;56.49
69359;HTU21D;56520;49.066;8.660;2023-08-12T11:21:27;28.35;57.55
69359;HTU21D;56520;49.066;8.660;2023-08-12T11:23:55;28.09;58.75
69359;HTU21D;56520;49.066;8.660;2023-08-12T11:26:23;27.78;61.14
69359;HTU21D;56520;49.066;8.660;2023-08-12T11:28:49;27.43;62.02
69359;HTU21D;56520;49.066;8.660;2023-08-12T11:31:15;27.12;63.85
69359;HTU21D;56520;49.066;8.660;2023-08-12T11:33:40;26.86;66.01
69359;HTU21D;56520;49.066;8.660;2023-08-12T11:36:07;26.61;66.74
69359;HTU21D;56520;49.066;8.660;2023-08-12T11:38:32;26.38;68.07
69359;HTU21D;56520;49.066;8.660;2023-08-12T11:41:00;26.21;71.03
69359;HTU21D;56520;49.066;8.660;2023-08-12T11:43:26;26.02;71.48
69359;HTU21D;56520;49.066;8.660;2023-08-12T11:45:51;25.77;72.05
69359;HTU21D;56520;49.066;8.660;2023-08-12T11:48:17;25.66;72.16
69359;HTU21D;56520;49.066;8.660;2023-08-12T11:50:42;25.90;73.73
69359;HTU21D;56520;49.066;8.660;2023-08-12T11:53:08;26.05;74.76
69359;HTU21D;56520;49.066;8.660;2023-08-12T11:55:33;26.16;74.89
69359;HTU21D;56520;49.066;8.660;2023-08-12T11:58:01;26.22;74.92
69359;HTU21D;56520;49.066;8.660;2023-08-12T12:00:27;26.27;74.81
69359;HTU21D;56520;49.066;8.660;2023-08-12T12:02:55;26.34;73.57
69359;HTU21D;56520;49.066;8.660;2023-08-12T12:05:22;26.24;73.35
69359;HTU21D;56520;49.066;8.660;2023-08-12T12:07:49;26.20;73.99
69359;HTU21D;56520;49.066;8.660;2023-08-12T12:10:19;26.20;74.21
69359;HTU21D;56520;49.066;8.660;2023-08-12T12:12:45;26.39;73.53
69359;HTU21D;56520;49.066;8.660;2023-08-12T12:15:13;26.70;72.43
69359;HTU21D;56520;49.066;8.660;2023-08-12T12:17:39;26.84;71.07
69359;HTU21D;56520;49.066;8.660;2023-08-12T12:20:06;26.77;71.17
69359;HTU21D;56520;49.066;8.660;2023-08-12T12:22:32;26.68;71.42
69359;HTU21D;56520;49.066;8.660;2023-08-12T12:25:12;26.65;70.57
69359;HTU21D;56520;49.066;8.660;2023-08-12T12:27:38;26.66;70.71
69359;HTU21D;56520;49.066;8.660;2023-08-12T12:30:08;26.70;70.87
69359;HTU21D;56520;49.066;8.660;2023-08-12T12:32:38;26.64;70.77
69359;HTU21D;56520;49.066;8.660;2023-08-12T12:35:04;26.72;70.91
69359;HTU21D;56520;49.066;8.660;2023-08-12T12:37:32;26.81;70.79
69359;HTU21D;56520;49.066;8.660;2023-08-12T12:40:01;27.00;70.97
69359;HTU21D;56520;49.066;8.660;2023-08-12T12:42:28;27.06;70.33
69359;HTU21D;56520;49.066;8.660;2023-08-12T12:44:53;27.19;69.61
69359;HTU21D;56520;49.066;8.660;2023-08-12T12:47:19;27.26;69.33
69359;HTU21D;56520;49.066;8.660;2023-08-12T12:49:45;27.38;68.97
69359;HTU21D;56520;49.066;8.660;2023-08-12T12:52:11;27.34;68.60
69359;HTU21D;56520;49.066;8.660;2023-08-12T12:54:36;27.20;68.86
69359;HTU21D;56520;49.066;8.660;2023-08-12T12:57:02;27.07;68.98
69359;HTU21D;56520;49.066;8.660;2023-08-12T12:59:31;27.09;69.29
69359;HTU21D;56520;49.066;8.660;2023-08-12T13:01:57;27.28;69.30
69359;HTU21D;56520;49.066;8.660;2023-08-12T13:04:22;27.41;68.34
69359;HTU21D;56520;49.066;8.660;2023-08-12T13:06:48;27.50;68.06
69359;HTU21D;56520;49.066;8.660;2023-08-12T13:09:13;27.69;66.44
69359;HTU21D;56520;49.066;8.660;2023-08-12T13:11:39;27.94;66.85
69359;HTU21D;56520;49.066;8.660;2023-08-12T13:14:04;28.17;66.73
69359;HTU21D;56520;49.066;8.660;2023-08-12T13:16:30;28.43;66.71
69359;HTU21D;56520;49.066;8.660;2023-08-12T13:18:56;28.83;65.28
69359;HTU21D;56520;49.066;8.660;2023-08-12T13:21:24;29.02;64.46
69359;HTU21D;56520;49.066;8.660;2023-08-12T13:23:49;28.91;62.00
69359;HTU21D;56520;49.066;8.660;2023-08-12T13:26:18;28.74;62.15
69359;HTU21D;56520;49.066;8.660;2023-08-12T13:28:44;28.62;61.34
69359;HTU21D;56520;49.066;8.660;2023-08-12T13:31:09;28.45;62.82
69359;HTU21D;56520;49.066;8.660;2023-08-12T13:33:35;28.48;63.32
69359;HTU21D;56520;49.066;8.660;2023-08-12T13:36:00;28.45;63.34
69359;HTU21D;56520;49.066;8.660;2023-08-12T13:38:26;28.38;63.21
69359;HTU21D;56520;49.066;8.660;2023-08-12T13:40:51;28.26;63.64
69359;HTU21D;56520;49.066;8.660;2023-08-12T13:43:17;28.11;63.80
69359;HTU21D;56520;49.066;8.660;2023-08-12T13:45:42;27.97;64.08
69359;HTU21D;56520;49.066;8.660;2023-08-12T13:48:10;27.90;64.45
69359;HTU21D;56520;49.066;8.660;2023-08-12T13:50:36;27.88;64.67
69359;HTU21D;56520;49.066;8.660;2023-08-12T13:53:02;27.91;64.84
69359;HTU21D;56520;49.066;8.660;2023-08-12T13:55:28;27.94;64.89
69359;HTU21D;56520;49.066;8.660;2023-08-12T13:57:53;28.01;61.95
69359;HTU21D;56520;49.066;8.660;2023-08-12T14:00:18;28.06;63.78
69359;HTU21D;56520;49.066;8.660;2023-08-12T14:02:44;28.16;61.28
69359;HTU21D;56520;49.066;8.660;2023-08-12T14:05:10;28.19;62.63
69359;HTU21D;56520;49.066;8.660;2023-08-12T14:07:38;28.18;63.05
69359;HTU21D;56520;49.066;8.660;2023-08-12T14:10:04;28.19;62.98
69359;HTU21D;56520;49.066;8.660;2023-08-12T14:12:30;28.31;62.42
69359;HTU21D;56520;49.066;8.660;2023-08-12T14:14:55;28.38;62.18
69359;HTU21D;56520;49.066;8.660;2023-08-12T14:17:21;28.30;61.37
69359;HTU21D;56520;49.066;8.660;2023-08-12T14:19:49;28.21;61.93
69359;HTU21D;56520;49.066;8.660;2023-08-12T14:22:16;28.12;62.70
69359;HTU21D;56520;49.066;8.660;2023-08-12T14:24:41;27.99;63.22
69359;HTU21D;56520;49.066;8.660;2023-08-12T14:27:09;27.83;63.12
69359;HTU21D;56520;49.066;8.660;2023-08-12T14:29:34;27.63;63.35
69359;HTU21D;56520;49.066;8.660;2023-08-12T14:32:00;27.43;63.79
69359;HTU21D;56520;49.066;8.660;2023-08-12T14:34:25;27.27;64.21
69359;HTU21D;56520;49.066;8.660;2023-08-12T14:36:50;27.14;64.60
69359;HTU21D;56520;49.066;8.660;2023-08-12T14:39:16;27.04;64.95
69359;HTU21D;56520;49.066;8.660;2023-08-12T14:41:41;26.93;65.08
69359;HTU21D;56520;49.066;8.660;2023-08-12T14:44:07;26.78;65.37
69359;HTU21D;56520;49.066;8.660;2023-08-12T14:46:32;26.68;65.95
69359;HTU21D;56520;49.066;8.660;2023-08-12T14:48:57;26.58;66.00
69359;HTU21D;56520;49.066;8.660;2023-08-12T14:51:23;26.47;66.26
69359;HTU21D;56520;49.066;8.660;2023-08-12T14:53:48;26.39;66.53
69359;HTU21D;56520;49.066;8.660;2023-08-12T14:56:14;26.31;66.87
69359;HTU21D;56520;49.066;8.660;2023-08-12T14:58:40;26.24;67.37
69359;HTU21D;56520;49.066;8.660;2023-08-12T15:01:05;26.16;67.88
69359;HTU21D;56520;49.066;8.660;2023-08-12T15:03:32;26.08;68.45
69359;HTU21D;56520;49.066;8.660;2023-08-12T15:06:01;25.97;70.81
69359;HTU21D;56520;49.066;8.660;2023-08-12T15:08:27;25.81;72.48
69359;HTU21D;56520;49.066;8.660;2023-08-12T15:10:56;25.57;73.68
69359;HTU21D;56520;49.066;8.660;2023-08-12T15:13:25;25.33;74.92